Time;durP1;ratioP1;P1;durP2;ratioP2;P2;SDS_P1;SDS_P2;PMS_P1;PMS_P2;Temp;Humidity;BMP_temperature;BMP_pressure;BME280_temperature;BME280_humidity;BME280_pressure;Samples;Min_cycle;Max_cycle;Signal;HPM_P1;HPM_P2
2021/10/09 00:01:32;;;;;;;29.27;16.80;;;10.20;99.90;;;;;;5091994;28;20402;-56
2021/10/09 00:03:58;;;;;;;29.23;16.83;;;10.30;99.90;;;;;;5092338;28;20461;-55
2021/10/09 00:06:23;;;;;;;29.83;16.90;;;10.20;99.90;;;;;;5092631;28;20719;-55
2021/10/09 00:08:49;;;;;;;29.52;15.27;;;10.20;99.90;;;;;;5091845;28;20740;-56
2021/10/09 00:11:17;;;;;;;28.57;16.50;;;10.20;99.90;;;;;;5092790;28;20370;-55
2021/10/09 00:13:44;;;;;;;27.73;15.50;;;10.20;99.90;;;;;;5091717;28;20760;-55
2021/10/09 00:16:10;;;;;;;28.15;15.63;;;10.20;99.90;;;;;;5092454;28;20466;-56
2021/10/09 00:18:35;;;;;;;30.23;16.50;;;10.20;99.90;;;;;;5091877;28;20838;-56
2021/10/09 00:21:01;;;;;;;27.27;15.68;;;10.20;99.90;;;;;;5092115;28;20378;-55
2021/10/09 00:23:27;;;;;;;29.20;15.43;;;10.10;99.90;;;;;;5092415;28;20389;-55
2021/10/09 00:25:55;;;;;;;24.90;14.52;;;10.10;99.90;;;;;;5091662;28;20994;-55
2021/10/09 00:28:20;;;;;;;28.80;16.50;;;10.10;99.90;;;;;;5092072;28;20459;-55
2021/10/09 00:30:46;;;;;;;26.70;16.70;;;10.20;99.90;;;;;;5091416;28;20468;-55
2021/10/09 00:33:12;;;;;;;28.83;16.20;;;10.20;99.90;;;;;;5092148;28;20386;-55
2021/10/09 00:35:37;;;;;;;27.30;15.93;;;10.20;99.90;;;;;;5090975;28;20843;-55
2021/10/09 00:38:03;;;;;;;26.07;15.87;;;10.10;99.90;;;;;;5091749;28;20382;-55
2021/10/09 00:40:28;;;;;;;29.70;17.10;;;10.00;99.90;;;;;;5091917;28;20457;-55
2021/10/09 00:42:54;;;;;;;30.10;16.67;;;10.00;99.90;;;;;;5091054;28;20839;-55
2021/10/09 00:45:20;;;;;;;25.77;15.27;;;10.00;99.90;;;;;;5091508;28;20404;-55
2021/10/09 00:47:45;;;;;;;27.33;15.47;;;9.90;99.90;;;;;;5091053;28;20410;-55
2021/10/09 00:50:11;;;;;;;28.52;15.95;;;10.00;99.90;;;;;;5091665;28;20413;-55
2021/10/09 00:52:38;;;;;;;29.13;15.32;;;10.00;99.90;;;;;;5090893;28;20370;-55
2021/10/09 00:55:06;;;;;;;28.95;14.98;;;9.90;99.90;;;;;;5091724;28;20447;-55
2021/10/09 00:57:35;;;;;;;31.05;16.85;;;10.00;99.90;;;;;;5089680;28;20791;-56
2021/10/09 01:00:02;;;;;;;29.77;16.40;;;10.00;99.90;;;;;;5091511;28;20389;-55
2021/10/09 01:02:29;;;;;;;29.23;16.13;;;10.00;99.90;;;;;;5091623;28;20423;-55
2021/10/09 01:04:55;;;;;;;28.85;16.20;;;10.00;99.90;;;;;;5090432;28;21282;-55
2021/10/09 01:07:21;;;;;;;28.35;16.63;;;9.90;99.90;;;;;;5091263;28;20477;-55
2021/10/09 01:09:47;;;;;;;30.67;17.23;;;9.90;99.90;;;;;;5090840;28;20385;-55
2021/10/09 01:12:14;;;;;;;27.02;16.05;;;9.90;99.90;;;;;;5091422;28;20385;-55
2021/10/09 01:14:40;;;;;;;29.13;15.75;;;9.80;99.90;;;;;;5090580;28;20444;-55
2021/10/09 01:17:10;;;;;;;27.25;15.55;;;9.80;99.90;;;;;;5091116;28;20447;-55
2021/10/09 01:19:36;;;;;;;27.42;15.70;;;9.80;99.90;;;;;;5090336;28;20373;-56
2021/10/09 01:22:01;;;;;;;30.17;16.50;;;9.70;99.90;;;;;;5089910;28;20732;-55
2021/10/09 01:24:27;;;;;;;26.38;15.30;;;9.80;99.90;;;;;;5091143;28;20378;-55
2021/10/09 01:26:53;;;;;;;28.93;15.73;;;9.80;99.90;;;;;;5089922;28;20417;-55
2021/10/09 01:29:18;;;;;;;25.88;15.55;;;9.70;99.90;;;;;;5090301;28;20469;-57
2021/10/09 01:31:44;;;;;;;29.30;15.97;;;9.70;99.90;;;;;;5089985;28;20465;-54
2021/10/09 01:34:10;;;;;;;27.95;15.50;;;9.70;99.90;;;;;;5090738;28;20859;-56
2021/10/09 01:36:39;;;;;;;31.73;16.70;;;9.70;99.90;;;;;;5090278;28;20394;-56
2021/10/09 01:39:06;;;;;;;27.27;16.10;;;9.70;99.90;;;;;;5090862;28;20386;-56
2021/10/09 01:41:40;;;;;;;29.38;15.27;;;9.70;99.90;;;;;;5090679;28;20378;-57
2021/10/09 01:44:07;;;;;;;26.73;15.73;;;9.60;99.90;;;;;;5089564;28;20427;-56
2021/10/09 01:46:32;;;;;;;25.95;15.32;;;9.60;99.90;;;;;;5090308;28;20382;-57
2021/10/09 01:48:58;;;;;;;27.07;15.47;;;9.60;99.90;;;;;;5089818;28;20381;-56
2021/10/09 01:51:26;;;;;;;30.58;14.98;;;9.60;99.90;;;;;;5090275;28;20382;-55
2021/10/09 01:53:52;;;;;;;27.48;15.80;;;9.60;99.90;;;;;;5089956;28;20382;-55
2021/10/09 01:56:18;;;;;;;23.77;14.27;;;9.70;99.90;;;;;;5088691;28;20842;-55
2021/10/09 01:58:44;;;;;;;25.55;14.60;;;9.60;99.90;;;;;;5089998;28;20386;-55
2021/10/09 02:01:10;;;;;;;27.95;14.88;;;9.60;99.90;;;;;;5090697;28;20393;-56
2021/10/09 02:03:35;;;;;;;27.02;14.35;;;9.60;99.90;;;;;;5089673;28;20404;-56
2021/10/09 02:06:01;;;;;;;27.47;14.90;;;9.60;99.90;;;;;;5090069;28;20382;-55
2021/10/09 02:08:27;;;;;;;25.80;15.45;;;9.60;99.90;;;;;;5090156;28;20436;-56
2021/10/09 02:14:17;;;;;;;26.25;14.88;;;9.60;99.90;;;;;;5089908;28;20381;-55
2021/10/09 02:19:00;;;;;;;26.58;14.95;;;9.60;99.90;;;;;;5089373;28;20397;-55
2021/10/09 02:27:02;;;;;;;25.00;14.32;;;9.50;99.90;;;;;;5089666;28;20945;-55
2021/10/09 02:29:27;;;;;;;27.17;14.70;;;9.50;99.90;;;;;;5089889;28;20386;-55
2021/10/09 02:31:56;;;;;;;27.83;14.38;;;9.60;99.90;;;;;;5088849;28;20396;-55
2021/10/09 02:34:22;;;;;;;24.60;14.43;;;9.50;99.90;;;;;;5089764;28;20378;-55
2021/10/09 02:36:48;;;;;;;27.17;15.57;;;9.40;99.90;;;;;;5089250;28;20396;-55
2021/10/09 02:39:13;;;;;;;26.57;15.20;;;9.40;99.90;;;;;;5089708;28;20413;-55
2021/10/09 02:41:39;;;;;;;27.05;15.07;;;9.40;99.90;;;;;;5088618;28;20859;-56
2021/10/09 02:44:05;;;;;;;28.27;15.10;;;9.40;99.90;;;;;;5089530;28;20839;-55
2021/10/09 02:46:31;;;;;;;29.40;15.60;;;9.40;99.90;;;;;;5089602;28;20445;-56
2021/10/09 02:48:57;;;;;;;28.07;14.77;;;9.30;99.90;;;;;;5088440;28;20527;-55
2021/10/09 02:51:22;;;;;;;27.80;15.73;;;9.30;99.90;;;;;;5089743;28;20461;-55
2021/10/09 02:53:48;;;;;;;27.70;15.30;;;9.30;99.90;;;;;;5088859;28;20376;-55
2021/10/09 02:56:14;;;;;;;26.98;15.38;;;9.30;99.90;;;;;;5089203;28;20433;-55
2021/10/09 02:58:39;;;;;;;28.77;15.53;;;9.30;99.90;;;;;;5087357;28;20390;-55
2021/10/09 03:01:05;;;;;;;25.23;15.00;;;9.30;99.90;;;;;;5089550;28;20374;-55
2021/10/09 03:03:30;;;;;;;30.90;16.03;;;9.20;99.90;;;;;;5089326;28;20382;-55
2021/10/09 03:05:56;;;;;;;24.40;14.70;;;9.20;99.90;;;;;;5088849;28;20723;-55
2021/10/09 03:08:22;;;;;;;29.48;14.68;;;9.20;99.90;;;;;;5089353;28;20821;-54
2021/10/09 03:10:47;;;;;;;30.50;16.70;;;9.20;99.90;;;;;;5088421;28;20481;-55
2021/10/09 03:13:13;;;;;;;28.10;15.98;;;9.20;99.90;;;;;;5089556;28;20882;-55
2021/10/09 03:15:39;;;;;;;28.00;15.48;;;9.10;99.90;;;;;;5088254;28;20394;-55
2021/10/09 03:18:04;;;;;;;28.37;15.23;;;9.10;99.90;;;;;;5089214;28;20481;-55
2021/10/09 03:20:30;;;;;;;29.70;16.10;;;9.10;99.90;;;;;;5089454;28;20374;-54
2021/10/09 03:22:56;;;;;;;30.50;16.03;;;9.00;99.90;;;;;;5087225;28;20457;-55
2021/10/09 03:25:21;;;;;;;30.00;16.67;;;9.10;99.90;;;;;;5089294;28;20432;-56
2021/10/09 03:27:47;;;;;;;24.50;14.33;;;9.00;99.90;;;;;;5088384;28;20861;-55
2021/10/09 03:30:13;;;;;;;29.88;17.02;;;9.00;99.90;;;;;;5089256;28;20426;-55
2021/10/09 03:32:39;;;;;;;28.83;15.13;;;9.10;99.90;;;;;;5088194;28;20735;-56
2021/10/09 03:35:08;;;;;;;28.65;15.88;;;9.00;99.90;;;;;;5089300;28;20470;-55
2021/10/09 03:37:34;;;;;;;26.35;15.73;;;8.90;99.90;;;;;;5089382;28;20818;-55
2021/10/09 03:40:03;;;;;;;26.13;15.60;;;8.90;99.90;;;;;;5088660;28;20417;-55
2021/10/09 03:45:17;;;;;;;27.80;15.80;;;8.70;99.90;;;;;;5088720;28;20414;-55
2021/10/09 03:48:01;;;;;;;27.52;15.00;;;8.70;99.90;;;;;;5086976;28;20398;-56
2021/10/09 03:52:58;;;;;;;28.33;15.25;;;8.70;99.90;;;;;;5088352;28;20872;-55
2021/10/09 03:55:24;;;;;;;24.58;14.00;;;8.70;99.90;;;;;;5089144;28;20370;-55
2021/10/09 03:57:49;;;;;;;25.98;14.90;;;8.70;99.90;;;;;;5087823;28;20764;-54
2021/10/09 04:00:19;;;;;;;27.70;15.80;;;8.60;99.90;;;;;;5088008;28;20386;-55
2021/10/09 04:02:46;;;;;;;30.83;16.13;;;8.60;99.90;;;;;;5088053;28;20726;-56
2021/10/09 04:05:12;;;;;;;24.98;15.30;;;8.60;99.90;;;;;;5088982;28;20465;-55
2021/10/09 04:07:38;;;;;;;24.73;14.50;;;8.60;99.90;;;;;;5090451;28;20755;-56
2021/10/09 04:10:05;;;;;;;27.75;14.63;;;8.60;99.90;;;;;;5092511;28;20386;-56
2021/10/09 04:12:31;;;;;;;31.10;16.60;;;8.50;99.90;;;;;;5092606;28;20370;-55
2021/10/09 04:14:56;;;;;;;26.02;14.90;;;8.40;99.90;;;;;;5090348;28;20957;-55
2021/10/09 04:17:22;;;;;;;27.43;15.13;;;8.30;99.90;;;;;;5092268;28;20389;-56
2021/10/09 04:19:48;;;;;;;30.08;15.55;;;8.30;99.90;;;;;;5091362;28;20427;-55
2021/10/09 04:22:13;;;;;;;29.17;15.23;;;8.30;99.90;;;;;;5092097;28;20744;-55
2021/10/09 04:24:39;;;;;;;31.23;15.95;;;8.20;99.90;;;;;;5091649;28;20370;-56
2021/10/09 04:27:05;;;;;;;25.47;14.67;;;8.20;99.90;;;;;;5091872;28;20421;-55
2021/10/09 04:29:30;;;;;;;28.35;16.35;;;8.10;99.90;;;;;;5092086;28;20558;-55
2021/10/09 04:31:56;;;;;;;30.17;15.93;;;8.00;99.90;;;;;;5091802;28;20468;-53
2021/10/09 04:34:22;;;;;;;29.60;15.73;;;8.00;99.90;;;;;;5092256;28;20366;-55
2021/10/09 04:36:48;;;;;;;31.30;17.10;;;8.00;99.90;;;;;;5091292;28;20381;-55
2021/10/09 04:39:14;;;;;;;32.53;17.50;;;8.10;99.90;;;;;;5092468;28;20371;-55
2021/10/09 04:41:40;;;;;;;28.77;17.38;;;8.20;99.90;;;;;;5091247;28;20402;-56
2021/10/09 04:44:06;;;;;;;29.47;16.13;;;8.20;99.90;;;;;;5092094;28;20856;-55
2021/10/09 04:46:32;;;;;;;30.63;16.98;;;8.20;99.90;;;;;;5092116;28;20374;-55
2021/10/09 04:48:58;;;;;;;28.20;15.87;;;8.00;99.90;;;;;;5091340;28;20882;-55
2021/10/09 04:51:25;;;;;;;30.92;16.00;;;7.90;99.90;;;;;;5090061;28;20516;-55
2021/10/09 04:53:50;;;;;;;31.73;16.48;;;7.90;99.90;;;;;;5090829;28;20393;-55
2021/10/09 04:56:16;;;;;;;31.87;16.70;;;7.90;99.90;;;;;;5091485;28;20386;-55
2021/10/09 04:58:44;;;;;;;30.00;17.50;;;7.80;99.90;;;;;;5088874;28;20414;-55
2021/10/09 05:01:09;;;;;;;36.05;17.48;;;7.80;99.90;;;;;;5091549;28;20428;-55
2021/10/09 05:03:35;;;;;;;33.77;18.03;;;7.60;99.90;;;;;;5091339;28;20476;-55
2021/10/09 05:06:01;;;;;;;29.30;18.20;;;7.50;99.90;;;;;;5090688;28;20461;-53
2021/10/09 05:08:26;;;;;;;33.27;17.47;;;7.50;99.90;;;;;;5091324;28;20747;-52
2021/10/09 05:10:52;;;;;;;38.40;18.92;;;7.40;99.90;;;;;;5089003;28;20414;-53
2021/10/09 05:13:18;;;;;;;32.63;18.37;;;7.40;99.90;;;;;;5090162;28;20390;-53
2021/10/09 05:15:45;;;;;;;32.00;17.05;;;7.30;99.90;;;;;;5090080;28;20390;-53
2021/10/09 05:18:12;;;;;;;33.15;17.48;;;7.10;99.90;;;;;;5091012;28;20414;-54
2021/10/09 05:20:38;;;;;;;30.08;16.27;;;7.10;99.90;;;;;;5090939;28;20915;-55
2021/10/09 05:23:04;;;;;;;32.17;17.05;;;7.00;99.90;;;;;;5091105;28;20442;-54
2021/10/09 05:25:32;;;;;;;29.08;16.63;;;7.00;99.90;;;;;;5090926;28;20374;-53
2021/10/09 05:28:07;;;;;;;32.83;18.60;;;7.10;99.90;;;;;;5089989;28;20476;-54
2021/10/09 05:30:34;;;;;;;30.50;17.70;;;7.10;99.90;;;;;;5090966;28;20410;-54
2021/10/09 05:33:22;;;;;;;32.20;18.50;;;7.10;99.90;;;;;;5090137;28;21226;-54
2021/10/09 05:35:48;;;;;;;30.10;17.00;;;7.20;99.90;;;;;;5089780;28;20382;-54
2021/10/09 05:38:14;;;;;;;31.90;17.40;;;7.20;99.90;;;;;;5090209;28;20389;-54
2021/10/09 05:40:40;;;;;;;32.80;18.10;;;7.30;99.90;;;;;;5088416;28;20436;-55
2021/10/09 05:43:06;;;;;;;32.20;18.27;;;7.30;99.90;;;;;;5090618;28;20378;-53
2021/10/09 05:45:33;;;;;;;31.58;17.80;;;7.40;99.90;;;;;;5089260;28;20856;-54
2021/10/09 05:47:59;;;;;;;28.95;16.27;;;7.40;99.90;;;;;;5084560;28;20406;-54
2021/10/09 05:50:29;;;;;;;32.75;18.17;;;7.50;99.90;;;;;;5087974;28;20398;-53
2021/10/09 05:53:01;;;;;;;32.80;18.38;;;7.50;99.90;;;;;;5089275;28;20374;-53
2021/10/09 05:55:32;;;;;;;33.45;17.20;;;7.60;99.90;;;;;;5089597;28;20859;-53
2021/10/09 07:00:20;;;;;;;23.10;13.57;;;17.90;99.90;;;;;;5069163;28;20383;-54
2021/10/09 07:02:46;;;;;;;21.57;13.90;;;18.40;99.90;;;;;;5100005;28;20727;-54
2021/10/09 07:05:16;;;;;;;27.05;14.00;;;18.90;99.90;;;;;;5096797;28;20380;-54
2021/10/09 07:07:52;;;;;;;23.25;14.00;;;19.20;99.90;;;;;;5086833;28;20497;-55
2021/10/09 07:10:18;;;;;;;22.80;14.40;;;19.40;99.90;;;;;;5101793;28;20479;-55
2021/10/09 07:12:44;;;;;;;22.60;15.50;;;20.00;98.50;;;;;;5091639;28;20411;-54
2021/10/09 07:15:15;;;;;;;24.27;18.13;;;20.00;97.70;;;;;;5093959;28;20420;-54
2021/10/09 07:17:41;;;;;;;22.88;17.30;;;20.30;96.20;;;;;;5093429;28;20380;-55
2021/10/09 07:20:08;;;;;;;20.88;17.23;;;20.30;95.70;;;;;;5093848;28;20383;-55
2021/10/09 07:22:35;;;;;;;22.05;16.98;;;20.30;95.00;;;;;;5094507;28;20867;-55
2021/10/09 07:25:01;;;;;;;21.92;19.17;;;21.00;94.70;;;;;;5087631;28;20390;-55
2021/10/09 07:27:27;;;;;;;22.33;19.73;;;21.30;93.30;;;;;;5093929;28;20408;-56
2021/10/09 07:29:53;;;;;;;22.67;20.27;;;21.80;92.40;;;;;;5090644;28;20849;-56
2021/10/09 07:32:18;;;;;;;25.57;20.43;;;22.30;90.70;;;;;;5080140;28;20386;-56
2021/10/09 07:34:44;;;;;;;23.10;19.63;;;22.90;88.10;;;;;;5082351;28;20390;-56
2021/10/09 07:37:10;;;;;;;24.65;19.30;;;22.50;87.20;;;;;;5083156;28;20401;-56
2021/10/09 07:39:36;;;;;;;23.38;18.20;;;22.50;85.50;;;;;;5074485;28;20387;-56
2021/10/09 07:42:02;;;;;;;20.45;18.23;;;22.30;85.90;;;;;;5075812;28;20378;-56
2021/10/09 07:44:28;;;;;;;21.73;18.38;;;22.10;85.90;;;;;;5079657;28;20894;-56
2021/10/09 07:46:54;;;;;;;23.77;19.30;;;21.80;86.50;;;;;;5079640;28;20399;-56
2021/10/09 07:49:20;;;;;;;23.67;18.30;;;22.00;85.50;;;;;;5084953;28;20394;-55
2021/10/09 07:51:45;;;;;;;23.30;17.10;;;22.10;84.30;;;;;;5077804;28;20443;-55
2021/10/09 07:54:12;;;;;;;22.30;18.23;;;21.60;85.80;;;;;;5078972;28;20388;-55
2021/10/09 07:56:38;;;;;;;20.50;17.42;;;21.60;86.50;;;;;;5092713;28;20942;-57
2021/10/09 07:59:03;;;;;;;21.13;16.67;;;21.80;86.40;;;;;;5088746;28;20509;-55
2021/10/09 08:01:31;;;;;;;23.73;17.23;;;22.00;84.40;;;;;;5089445;28;20464;-56
2021/10/09 08:03:57;;;;;;;22.52;17.45;;;21.70;86.80;;;;;;5088740;28;20378;-55
2021/10/09 08:06:23;;;;;;;22.13;18.43;;;22.40;85.40;;;;;;5088416;28;20390;-56
2021/10/09 08:08:49;;;;;;;21.97;17.70;;;22.80;83.50;;;;;;5092924;28;20427;-57
2021/10/09 08:11:15;;;;;;;22.65;17.60;;;23.20;81.10;;;;;;5087109;28;20873;-56
2021/10/09 08:13:40;;;;;;;21.60;17.70;;;23.30;80.70;;;;;;5084361;28;20393;-57
2021/10/09 08:16:06;;;;;;;20.67;18.47;;;23.70;79.60;;;;;;5079970;28;20382;-54
2021/10/09 08:18:32;;;;;;;26.37;19.13;;;23.40;78.90;;;;;;5078327;28;20378;-55
2021/10/09 08:21:04;;;;;;;21.23;17.30;;;23.40;78.10;;;;;;5083904;28;20371;-57
2021/10/09 08:26:45;;;;;;;22.10;17.92;;;23.30;77.40;;;;;;5066539;28;20490;-56
2021/10/09 08:40:09;;;;;;;25.57;19.13;;;23.40;77.20;;;;;;5091736;28;20377;-56
2021/10/09 08:42:35;;;;;;;25.00;19.20;;;23.70;77.10;;;;;;5091811;28;20525;-58
2021/10/09 08:45:00;;;;;;;23.27;18.38;;;24.50;74.10;;;;;;5090282;28;20443;-54
2021/10/09 08:47:26;;;;;;;25.20;20.30;;;25.00;73.80;;;;;;5085342;28;20406;-54
2021/10/09 08:49:52;;;;;;;30.48;27.75;;;25.60;70.70;;;;;;5083724;28;20534;-56
2021/10/09 08:52:22;;;;;;;20.20;14.93;;;25.60;69.50;;;;;;5087493;28;20389;-57
2021/10/09 08:54:48;;;;;;;21.05;14.18;;;25.90;69.20;;;;;;5085629;28;20479;-57
2021/10/09 08:57:19;;;;;;;25.77;20.73;;;25.90;67.70;;;;;;5084796;28;20425;-55
2021/10/09 08:59:52;;;;;;;23.80;20.45;;;25.70;66.00;;;;;;5081874;28;20388;-55
2021/10/09 09:02:41;;;;;;;23.25;19.33;;;25.40;67.40;;;;;;5081334;28;20401;-55
2021/10/09 09:05:37;;;;;;;23.98;19.40;;;25.20;68.40;;;;;;5082746;28;20480;-55
2021/10/09 09:08:28;;;;;;;21.90;18.90;;;24.80;66.90;;;;;;5075726;28;20499;-55
2021/10/09 09:30:56;;;;;;;26.00;20.42;;;26.50;63.10;;;;;;5071175;28;21080;-53
2021/10/09 09:39:05;;;;;;;23.10;18.33;;;25.30;64.00;;;;;;5069782;28;20565;-53
2021/10/09 09:41:48;;;;;;;22.40;16.52;;;25.40;64.40;;;;;;5074100;28;20408;-53
2021/10/09 09:44:16;;;;;;;24.15;19.60;;;26.00;63.80;;;;;;5074253;28;20441;-52
2021/10/09 09:46:42;;;;;;;22.30;18.53;;;26.10;60.90;;;;;;5071436;28;20443;-57
2021/10/09 09:49:09;;;;;;;21.75;17.92;;;25.70;62.40;;;;;;5069584;28;20388;-55
2021/10/09 09:51:38;;;;;;;21.52;18.23;;;25.90;62.70;;;;;;5069926;28;20430;-54
2021/10/09 09:54:05;;;;;;;21.67;18.42;;;25.90;62.30;;;;;;5070872;28;21209;-55
2021/10/09 09:56:31;;;;;;;24.50;20.30;;;25.20;65.10;;;;;;5075533;28;20460;-53
2021/10/09 09:59:01;;;;;;;25.80;20.17;;;24.30;67.10;;;;;;5075886;28;20401;-53
2021/10/09 10:01:34;;;;;;;24.15;20.13;;;23.40;69.00;;;;;;5076267;28;20412;-53
2021/10/09 10:04:01;;;;;;;27.27;19.53;;;22.20;72.10;;;;;;5070164;28;20395;-53
2021/10/09 10:06:28;;;;;;;25.37;19.77;;;22.10;74.40;;;;;;5070833;28;20404;-55
2021/10/09 10:08:56;;;;;;;24.45;19.20;;;21.80;74.80;;;;;;5068097;28;20522;-53
2021/10/09 10:11:22;;;;;;;25.95;20.40;;;21.80;75.10;;;;;;5069807;28;20873;-53
2021/10/09 10:13:49;;;;;;;30.73;17.77;;;21.30;77.00;;;;;;5069046;28;20711;-53
2021/10/09 10:16:16;;;;;;;30.35;20.00;;;20.80;79.20;;;;;;5072073;28;20833;-54
2021/10/09 10:18:45;;;;;;;22.87;17.70;;;21.30;79.20;;;;;;5069081;28;20406;-58
2021/10/09 10:21:35;;;;;;;23.38;17.67;;;22.40;76.70;;;;;;5071062;28;20484;-54
2021/10/09 10:24:01;;;;;;;21.02;16.75;;;23.00;74.80;;;;;;5074690;28;20419;-54
2021/10/09 10:26:32;;;;;;;24.50;18.03;;;23.70;71.50;;;;;;5103206;27;20744;-54
2021/10/09 10:29:18;;;;;;;22.73;17.63;;;24.30;70.20;;;;;;5075567;28;20469;-54
2021/10/09 10:32:07;;;;;;;21.77;17.40;;;23.70;70.50;;;;;;5078795;28;20481;-58
2021/10/09 10:34:33;;;;;;;22.23;16.80;;;23.40;72.20;;;;;;5077422;28;20411;-53
2021/10/09 10:36:58;;;;;;;25.25;18.50;;;23.00;71.90;;;;;;5072429;28;20402;-53
2021/10/09 10:39:40;;;;;;;23.25;17.83;;;23.40;71.30;;;;;;5074119;28;20918;-53
2021/10/09 10:42:26;;;;;;;21.70;17.95;;;23.80;69.40;;;;;;5069651;28;20401;-57
2021/10/09 10:54:06;;;;;;;28.40;22.40;;;22.70;68.90;;;;;;5067170;28;20443;-53
2021/10/09 10:56:32;;;;;;;22.30;16.88;;;23.80;70.40;;;;;;5074648;28;20420;-53
2021/10/09 10:59:29;;;;;;;20.63;17.10;;;24.00;69.40;;;;;;5085251;28;20495;-54
2021/10/09 11:02:11;;;;;;;21.38;16.70;;;24.10;69.20;;;;;;5048231;28;20414;-53
2021/10/09 11:04:43;;;;;;;23.73;17.90;;;24.10;68.60;;;;;;5083286;28;21290;-53
2021/10/09 11:07:10;;;;;;;20.27;16.10;;;23.40;69.50;;;;;;5078748;28;20461;-54
2021/10/09 11:09:38;;;;;;;21.40;15.45;;;22.70;69.90;;;;;;5092196;28;20386;-57
2021/10/09 11:12:17;;;;;;;22.65;16.48;;;22.60;70.90;;;;;;5087748;28;20477;-53
2021/10/09 11:14:43;;;;;;;21.97;15.33;;;21.90;73.10;;;;;;5088423;28;20392;-57
2021/10/09 11:17:09;;;;;;;23.58;16.50;;;21.40;74.20;;;;;;5091078;28;20477;-51
2021/10/09 11:19:50;;;;;;;23.58;16.85;;;20.40;76.50;;;;;;5090354;28;20393;-51
2021/10/09 11:22:18;;;;;;;26.23;15.63;;;20.10;78.10;;;;;;5079348;28;20396;-52
2021/10/09 11:24:45;;;;;;;25.80;16.27;;;19.80;79.70;;;;;;5081508;28;20376;-56
2021/10/09 11:27:12;;;;;;;22.77;16.10;;;19.80;81.40;;;;;;5099591;28;20685;-53
2021/10/09 11:29:39;;;;;;;25.80;16.17;;;19.90;80.50;;;;;;5072351;28;20403;-52
2021/10/09 11:32:09;;;;;;;20.45;14.98;;;19.90;80.90;;;;;;5075557;28;20837;-52
2021/10/09 11:34:49;;;;;;;22.17;14.95;;;19.60;80.90;;;;;;5089057;28;20408;-51
2021/10/09 11:37:16;;;;;;;23.13;15.93;;;19.70;80.50;;;;;;5076510;28;20893;-52
2021/10/09 11:39:50;;;;;;;21.90;15.32;;;19.50;82.70;;;;;;5080562;28;20924;-56
2021/10/09 11:42:21;;;;;;;21.67;15.20;;;19.20;84.00;;;;;;5076416;28;20494;-51
2021/10/09 11:45:10;;;;;;;21.17;15.25;;;19.40;82.20;;;;;;5077109;28;20845;-51
2021/10/09 11:53:39;;;;;;;22.25;15.25;;;19.40;83.40;;;;;;5080166;28;20460;-52
2021/10/09 11:56:08;;;;;;;20.20;14.53;;;19.60;83.50;;;;;;5078795;28;20386;-53
2021/10/09 11:58:56;;;;;;;18.90;13.60;;;19.80;80.70;;;;;;5083224;28;20415;-53
2021/10/09 12:01:33;;;;;;;18.42;13.85;;;19.40;80.70;;;;;;5079283;28;20447;-53
2021/10/09 12:04:17;;;;;;;21.65;13.80;;;19.30;84.80;;;;;;5074762;28;20431;-52
2021/10/09 12:06:43;;;;;;;18.23;13.40;;;19.50;81.30;;;;;;5091051;28;20393;-57
2021/10/09 12:09:10;;;;;;;18.30;13.18;;;19.60;83.00;;;;;;5091051;28;20476;-50
2021/10/09 12:11:36;;;;;;;21.92;15.10;;;19.70;83.10;;;;;;5077012;28;20911;-51
2021/10/09 12:14:03;;;;;;;17.40;13.00;;;19.80;82.60;;;;;;5080884;28;20481;-50
2021/10/09 12:16:49;;;;;;;17.88;13.00;;;19.80;81.00;;;;;;5087031;28;20382;-51
2021/10/09 12:19:26;;;;;;;21.38;13.35;;;19.60;80.50;;;;;;5082080;28;20927;-53
2021/10/09 12:21:52;;;;;;;18.15;13.55;;;19.70;81.40;;;;;;5082833;28;20392;-52
2021/10/09 12:24:25;;;;;;;16.73;13.33;;;19.30;79.50;;;;;;5072947;28;20927;-51
2021/10/09 12:27:15;;;;;;;17.33;12.75;;;19.50;80.90;;;;;;5081832;28;20416;-51
2021/10/09 12:29:58;;;;;;;17.73;11.70;;;19.50;81.60;;;;;;5070894;28;20485;-51
2021/10/09 12:32:24;;;;;;;18.70;11.90;;;19.70;81.10;;;;;;5093551;28;20409;-52
2021/10/09 12:35:13;;;;;;;17.10;12.98;;;19.50;81.20;;;;;;5090226;28;20386;-53
2021/10/09 12:38:07;;;;;;;18.70;13.32;;;19.80;82.60;;;;;;5104331;28;20389;-51
2021/10/09 12:40:35;;;;;;;18.35;13.15;;;19.90;80.20;;;;;;5076779;28;20382;-52
2021/10/09 12:43:01;;;;;;;18.23;13.20;;;19.80;80.70;;;;;;5089921;28;20395;-52
2021/10/09 12:45:28;;;;;;;16.33;12.23;;;19.60;78.60;;;;;;5075096;28;20719;-52
2021/10/09 12:47:56;;;;;;;15.93;12.40;;;19.70;79.60;;;;;;5071501;28;20485;-52
2021/10/09 12:50:23;;;;;;;18.92;12.63;;;19.60;80.60;;;;;;5082400;28;20485;-53
2021/10/09 12:52:49;;;;;;;17.27;11.70;;;19.60;78.50;;;;;;5087464;28;20811;-52
2021/10/09 12:55:14;;;;;;;18.05;12.88;;;19.80;79.60;;;;;;5072546;28;20467;-53
2021/10/09 12:57:54;;;;;;;18.40;12.60;;;19.80;80.60;;;;;;5082329;28;20420;-54
2021/10/09 13:00:22;;;;;;;17.00;11.27;;;19.80;81.10;;;;;;5074219;28;20407;-56
2021/10/09 13:02:51;;;;;;;16.23;11.70;;;19.70;80.60;;;;;;5069697;28;20486;-57
2021/10/09 13:05:17;;;;;;;16.60;11.80;;;19.70;79.10;;;;;;5084472;28;20759;-53
2021/10/09 13:07:43;;;;;;;18.30;11.10;;;19.50;78.10;;;;;;5080127;28;20402;-57
2021/10/09 13:10:10;;;;;;;14.70;10.30;;;19.40;77.20;;;;;;5075480;28;20887;-53
2021/10/09 13:12:36;;;;;;;15.98;10.02;;;19.20;75.90;;;;;;5078889;28;20464;-53
2021/10/09 13:15:02;;;;;;;14.05;10.13;;;18.90;74.00;;;;;;5074840;28;20467;-52
2021/10/09 13:17:28;;;;;;;15.15;10.05;;;19.10;75.60;;;;;;5075316;28;20430;-52
2021/10/09 13:19:53;;;;;;;15.60;10.00;;;19.40;74.70;;;;;;5079662;28;20883;-51
2021/10/09 13:22:19;;;;;;;14.18;9.80;;;19.70;75.60;;;;;;5078635;28;20401;-51
2021/10/09 13:24:45;;;;;;;14.38;10.45;;;19.40;72.50;;;;;;5076607;28;20411;-56
2021/10/09 13:27:10;;;;;;;12.97;9.77;;;19.60;74.30;;;;;;5082838;28;20418;-51
2021/10/09 13:29:36;;;;;;;15.03;9.80;;;19.70;72.70;;;;;;5084181;28;20484;-51
2021/10/09 13:32:02;;;;;;;12.67;8.90;;;19.50;72.40;;;;;;5074117;28;20481;-51
2021/10/09 13:34:28;;;;;;;12.77;9.93;;;19.70;72.20;;;;;;5088243;28;20401;-51
2021/10/09 13:36:54;;;;;;;15.87;10.23;;;19.90;72.60;;;;;;5075304;28;20382;-53
2021/10/09 13:39:19;;;;;;;15.65;9.75;;;20.30;74.20;;;;;;5088983;28;20805;-55
2021/10/09 13:41:45;;;;;;;15.15;9.82;;;20.10;72.60;;;;;;5090007;28;20373;-61
2021/10/09 13:44:11;;;;;;;16.52;9.95;;;20.00;73.30;;;;;;5089522;28;20615;-51
2021/10/09 13:46:37;;;;;;;16.73;9.30;;;19.90;73.60;;;;;;5085537;28;20439;-51
2021/10/09 13:51:14;;;;;;;14.43;10.10;;;19.80;72.30;;;;;;5106244;27;20353;-50
2021/10/09 13:53:42;;;;;;;13.80;9.80;;;19.50;71.30;;;;;;5064670;28;20492;-49
2021/10/09 14:09:00;;;;;;;13.20;9.00;;;19.00;71.80;;;;;;5093915;27;20889;-58
2021/10/09 14:11:26;;;;;;;16.30;9.50;;;18.70;72.60;;;;;;5064274;28;20430;-55
2021/10/09 14:13:51;;;;;;;12.70;9.70;;;18.90;73.70;;;;;;5069807;28;20383;-55
2021/10/09 14:16:17;;;;;;;15.48;9.20;;;19.10;74.40;;;;;;5067662;28;20466;-53
2021/10/09 14:18:43;;;;;;;12.13;8.55;;;19.20;71.70;;;;;;5067202;28;20377;-54
2021/10/09 14:21:08;;;;;;;14.80;9.80;;;19.20;74.10;;;;;;5069501;28;20387;-58
2021/10/09 14:23:34;;;;;;;16.17;10.60;;;19.40;74.60;;;;;;5069886;28;20375;-57
2021/10/09 14:26:00;;;;;;;13.82;9.60;;;19.40;75.40;;;;;;5068193;28;20889;-53
2021/10/09 14:28:25;;;;;;;15.60;9.95;;;19.50;76.20;;;;;;5068264;28;20417;-59
2021/10/09 14:30:52;;;;;;;14.10;9.98;;;18.80;75.40;;;;;;5064110;28;20382;-57
2021/10/09 14:33:18;;;;;;;15.05;11.00;;;19.60;76.90;;;;;;5081062;28;20926;-57
2021/10/09 14:35:44;;;;;;;16.15;11.85;;;19.50;78.70;;;;;;5084844;28;20371;-57
2021/10/09 14:38:11;;;;;;;16.27;10.57;;;19.30;78.70;;;;;;5076714;28;20426;-57
2021/10/09 14:40:37;;;;;;;16.48;10.93;;;19.30;80.10;;;;;;5084462;28;20440;-57
2021/10/09 14:43:03;;;;;;;16.50;10.23;;;19.20;80.90;;;;;;5085623;28;20371;-57
2021/10/09 14:45:30;;;;;;;18.92;11.90;;;19.00;81.60;;;;;;5080774;28;20385;-57
2021/10/09 15:19:42;;;;;;;19.30;11.40;;;18.10;85.90;;;;;;5070203;28;20466;-58
2021/10/09 15:22:08;;;;;;;16.20;10.63;;;18.00;85.40;;;;;;5071763;28;20467;-58
2021/10/09 15:24:34;;;;;;;18.15;12.50;;;17.90;85.60;;;;;;5069972;28;20376;-58
2021/10/09 15:27:00;;;;;;;16.85;12.00;;;17.80;86.70;;;;;;5070933;28;20380;-58
2021/10/09 15:29:26;;;;;;;19.57;11.10;;;17.70;86.00;;;;;;5070695;28;20734;-61
2021/10/09 15:31:52;;;;;;;15.52;11.63;;;17.60;86.30;;;;;;5058385;28;20441;-58
2021/10/09 15:34:18;;;;;;;17.05;11.20;;;17.70;87.40;;;;;;5064768;28;20384;-59
2021/10/09 15:36:44;;;;;;;16.85;10.18;;;17.70;88.20;;;;;;5070519;28;21046;-58